createdAt,value
2022-10-02T00:01:59.043Z,11.17
2022-10-02T00:04:54.982Z,11.09
2022-10-02T00:07:50.394Z,11.16
2022-10-02T00:10:44.915Z,10.94
2022-10-02T00:13:38.842Z,11.04
2022-10-02T00:16:35.524Z,10.86
2022-10-02T00:19:24.145Z,11.09
2022-10-02T00:22:25.376Z,10.94
2022-10-02T00:25:23.143Z,10.93
2022-10-02T00:28:23.915Z,11.02
2022-10-02T00:31:34.258Z,10.71
2022-10-02T00:34:31.469Z,10.89
2022-10-02T00:37:29.318Z,10.84
2022-10-02T00:40:38.061Z,10.79
2022-10-02T00:43:34.056Z,10.90
2022-10-02T00:46:41.302Z,11.16
2022-10-02T00:49:51.466Z,10.89
2022-10-02T00:52:51.461Z,11.05
2022-10-02T00:55:52.427Z,11.18
2022-10-02T00:58:58.025Z,11.21
2022-10-02T01:01:54.729Z,11.18
2022-10-02T01:04:43.515Z,11.25
2022-10-02T01:07:32.349Z,11.12
2022-10-02T01:10:22.444Z,11.26
2022-10-02T01:13:11.184Z,11.34
2022-10-02T01:16:01.591Z,11.06
2022-10-02T01:18:51.866Z,11.39
2022-10-02T01:21:47.679Z,11.47
2022-10-02T01:24:45.060Z,11.44
2022-10-02T01:27:38.911Z,11.46
2022-10-02T01:30:29.456Z,11.67
2022-10-02T01:33:18.325Z,11.62
2022-10-02T01:36:07.332Z,11.42
2022-10-02T01:38:56.355Z,11.43
2022-10-02T01:41:47.003Z,11.40
2022-10-02T01:44:35.416Z,11.10
2022-10-02T01:47:34.853Z,11.05
2022-10-02T01:50:33.834Z,11.24
2022-10-02T01:53:29.973Z,11.31
2022-10-02T01:56:24.568Z,11.45
2022-10-02T01:59:25.963Z,11.34
2022-10-02T02:02:22.370Z,11.23
2022-10-02T02:05:17.224Z,11.22
2022-10-02T02:08:10.811Z,11.29
2022-10-02T02:11:11.313Z,11.32
2022-10-02T02:14:04.288Z,11.39
2022-10-02T02:17:01.474Z,11.69
2022-10-02T02:19:53.516Z,11.48
2022-10-02T02:22:46.982Z,11.11
2022-10-02T02:25:39.899Z,11.37
2022-10-02T02:28:32.692Z,11.34
2022-10-02T02:31:25.991Z,11.57
2022-10-02T02:34:19.531Z,11.97
2022-10-02T02:37:13.914Z,11.82
2022-10-02T02:40:07.445Z,11.72
2022-10-02T02:43:00.855Z,11.38
2022-10-02T02:45:54.067Z,11.44
2022-10-02T02:48:47.014Z,12.09
2022-10-02T02:51:42.143Z,11.96
2022-10-02T02:54:35.447Z,11.50
2022-10-02T02:57:33.882Z,11.80
2022-10-02T03:00:23.991Z,11.91
2022-10-02T03:03:12.355Z,11.46
2022-10-02T03:06:07.913Z,11.43
2022-10-02T03:08:57.702Z,11.51
2022-10-02T03:11:54.913Z,11.55
2022-10-02T03:15:14.964Z,11.45
2022-10-02T03:18:31.131Z,12.00
2022-10-02T03:21:25.768Z,11.49
2022-10-02T03:24:23.381Z,11.70
2022-10-02T03:27:14.970Z,11.49
2022-10-02T03:30:06.724Z,11.32
2022-10-02T03:32:57.445Z,11.33
2022-10-02T03:35:46.748Z,11.19
2022-10-02T03:38:35.673Z,11.55
2022-10-02T03:41:25.309Z,11.25
2022-10-02T03:44:13.747Z,11.69
2022-10-02T03:47:02.038Z,11.28
2022-10-02T03:49:50.411Z,11.49
2022-10-02T03:52:38.860Z,11.49
2022-10-02T03:55:33.423Z,11.36
2022-10-02T03:58:23.257Z,11.63
2022-10-02T04:01:18.190Z,11.77
2022-10-02T04:04:14.270Z,11.28
2022-10-02T04:07:06.002Z,11.39
2022-10-02T04:10:04.384Z,11.40
2022-10-02T04:12:56.686Z,11.49
2022-10-02T04:15:58.048Z,11.64
2022-10-02T04:18:53.821Z,11.81
2022-10-02T04:21:47.082Z,11.56
2022-10-02T04:24:40.588Z,11.59
2022-10-02T04:27:37.231Z,11.32
2022-10-02T04:30:26.384Z,11.60
2022-10-02T04:33:18.366Z,11.77
2022-10-02T04:36:24.769Z,11.28
2022-10-02T04:39:46.631Z,11.19
2022-10-02T04:42:51.360Z,11.48
2022-10-02T04:45:59.964Z,11.11
2022-10-02T04:49:07.251Z,11.22
2022-10-02T04:52:10.306Z,11.48
2022-10-02T04:55:20.190Z,11.40
2022-10-02T04:58:25.233Z,11.55
2022-10-02T05:01:27.449Z,11.16
2022-10-02T05:04:57.165Z,11.50
2022-10-02T05:08:00.117Z,11.34
2022-10-02T05:11:00.642Z,11.62
2022-10-02T05:14:04.152Z,11.63
2022-10-02T05:17:08.451Z,11.81
2022-10-02T05:20:24.666Z,11.48
2022-10-02T05:23:27.465Z,11.59
2022-10-02T05:26:49.489Z,11.60
2022-10-02T05:30:04.136Z,11.83
2022-10-02T05:33:33.803Z,11.62
2022-10-02T05:36:40.743Z,11.74
2022-10-02T05:39:34.102Z,11.81
2022-10-02T05:42:43.150Z,12.01
2022-10-02T05:45:38.236Z,11.73
2022-10-02T05:48:30.097Z,11.68
2022-10-02T05:51:24.448Z,11.54
2022-10-02T05:54:24.471Z,11.90
2022-10-02T05:57:19.636Z,12.04
2022-10-02T06:00:24.174Z,12.06
2022-10-02T06:03:19.309Z,11.72
2022-10-02T06:06:16.586Z,11.71
2022-10-02T06:09:12.376Z,11.89
2022-10-02T06:12:08.185Z,11.71
2022-10-02T06:15:03.317Z,12.00
2022-10-02T06:17:56.127Z,11.98
2022-10-02T06:20:50.038Z,12.26
2022-10-02T06:23:41.627Z,11.82
2022-10-02T06:26:41.054Z,11.88
2022-10-02T06:29:35.613Z,12.06
2022-10-02T06:32:35.114Z,12.13
2022-10-02T06:35:43.128Z,12.14
2022-10-02T06:38:43.990Z,11.73
2022-10-02T06:41:42.168Z,12.00
2022-10-02T06:44:40.084Z,12.18
2022-10-02T06:47:41.145Z,11.78
2022-10-02T06:50:43.133Z,12.37
2022-10-02T06:54:01.364Z,12.40
2022-10-02T06:57:05.867Z,12.59
2022-10-02T07:00:09.691Z,12.24
2022-10-02T07:03:25.213Z,11.94
2022-10-02T07:06:21.963Z,12.73
2022-10-02T07:09:34.669Z,12.18
2022-10-02T07:12:44.042Z,12.47
2022-10-02T07:15:57.777Z,12.79
2022-10-02T07:19:00.028Z,12.38
2022-10-02T07:22:11.057Z,12.36
2022-10-02T07:25:27.198Z,12.71
2022-10-02T07:28:27.316Z,12.58
2022-10-02T07:31:29.476Z,12.73
2022-10-02T07:34:33.452Z,12.81
2022-10-02T07:37:32.138Z,13.15
2022-10-02T07:40:36.325Z,13.30
2022-10-02T07:43:42.383Z,12.80
2022-10-02T07:46:42.523Z,12.86
2022-10-02T07:49:44.198Z,12.75
2022-10-02T07:52:47.541Z,12.45
2022-10-02T07:55:41.594Z,12.98
2022-10-02T07:58:37.726Z,12.81
2022-10-02T08:01:30.523Z,13.11
2022-10-02T08:04:34.639Z,12.72
2022-10-02T08:07:25.676Z,13.22
2022-10-02T08:10:16.491Z,13.24
2022-10-02T08:13:12.252Z,13.54
2022-10-02T08:16:00.789Z,13.20
2022-10-02T08:18:53.979Z,13.38
2022-10-02T08:21:48.572Z,13.16
2022-10-02T08:24:43.029Z,13.21
2022-10-02T08:27:46.832Z,13.16
2022-10-02T08:30:35.310Z,13.03
2022-10-02T08:33:24.331Z,13.64
2022-10-02T08:36:51.783Z,13.03
2022-10-02T08:40:02.866Z,13.78
2022-10-02T08:43:29.823Z,13.51
2022-10-02T08:46:45.597Z,13.45
2022-10-02T08:50:23.741Z,13.45
2022-10-02T08:53:47.594Z,13.53
2022-10-02T08:56:52.138Z,13.49
2022-10-02T09:00:09.660Z,13.16
2022-10-02T09:03:31.316Z,13.83
2022-10-02T09:06:59.146Z,14.18
2022-10-02T09:10:29.632Z,13.47
2022-10-02T09:13:46.587Z,13.83
2022-10-02T09:16:46.472Z,13.52
2022-10-02T09:19:49.622Z,14.30
2022-10-02T09:22:59.644Z,13.87
2022-10-02T09:25:58.729Z,13.92
2022-10-02T09:29:15.800Z,14.11
2022-10-02T09:32:34.790Z,13.73
2022-10-02T09:35:57.856Z,13.72
2022-10-02T09:39:29.421Z,13.95
2022-10-02T09:42:46.127Z,14.39
2022-10-02T09:46:04.282Z,13.75
2022-10-02T11:22:42.733Z,15.77
2022-10-02T11:26:00.455Z,15.60
2022-10-02T11:29:19.776Z,15.45
2022-10-02T11:32:43.821Z,15.34
2022-10-02T11:35:49.145Z,15.14
2022-10-02T11:38:56.159Z,15.70
2022-10-02T11:42:16.217Z,15.26
2022-10-02T11:45:32.868Z,15.88
2022-10-02T11:48:45.002Z,15.57
2022-10-02T11:51:58.369Z,15.61
2022-10-02T11:54:56.381Z,15.99
2022-10-02T11:57:58.017Z,15.81
2022-10-02T12:01:11.914Z,16.91
2022-10-02T12:04:22.416Z,17.79
2022-10-02T12:07:25.710Z,17.84
2022-10-02T12:10:49.350Z,16.45
2022-10-02T12:14:01.369Z,16.86
2022-10-02T12:17:07.656Z,16.22
2022-10-02T12:20:32.904Z,16.91
2022-10-02T12:23:52.169Z,15.04
2022-10-02T12:27:08.414Z,14.84
2022-10-02T12:30:07.944Z,14.15
2022-10-02T12:33:16.352Z,13.87
2022-10-02T12:36:27.479Z,14.15
2022-10-02T12:39:30.683Z,14.81
2022-10-02T12:42:46.766Z,14.73
2022-10-02T12:46:01.932Z,15.19
2022-10-02T12:49:03.702Z,15.60
2022-10-02T12:52:27.965Z,16.01
2022-10-02T12:55:58.224Z,16.66
2022-10-02T12:59:02.229Z,17.04
2022-10-02T13:02:15.224Z,17.10
2022-10-02T13:05:33.255Z,17.40
2022-10-02T13:08:51.209Z,17.80
2022-10-02T13:11:56.124Z,17.28
2022-10-02T13:15:13.970Z,18.03
2022-10-02T13:18:14.547Z,17.41
2022-10-02T13:21:13.660Z,16.90
2022-10-02T13:24:14.699Z,17.41
2022-10-02T13:27:18.664Z,17.34
2022-10-02T13:30:15.371Z,17.70
2022-10-02T13:33:26.860Z,16.93
2022-10-02T13:36:21.984Z,17.17
2022-10-02T13:39:41.639Z,18.36
2022-10-02T13:42:43.053Z,18.30
2022-10-02T13:45:39.093Z,17.82
2022-10-02T13:48:42.923Z,17.69
2022-10-02T13:51:41.838Z,17.71
2022-10-02T13:54:51.279Z,17.63
2022-10-02T13:57:51.941Z,19.35
2022-10-02T14:00:55.845Z,19.10
2022-10-02T14:04:15.122Z,18.16
2022-10-02T14:07:14.447Z,18.03
2022-10-02T14:10:15.289Z,17.48
2022-10-02T14:13:26.509Z,16.84
2022-10-02T14:16:31.167Z,16.52
2022-10-02T14:19:44.547Z,17.06
2022-10-02T14:22:41.647Z,15.95
2022-10-02T14:25:43.721Z,14.60
2022-10-02T14:29:20.303Z,13.59
2022-10-02T14:32:32.987Z,13.42
2022-10-02T14:35:48.497Z,13.73
2022-10-02T14:38:50.630Z,13.47
2022-10-02T14:42:04.473Z,13.36
2022-10-02T14:45:21.847Z,13.56
2022-10-02T14:48:21.713Z,13.88
2022-10-02T14:51:28.278Z,14.61
2022-10-02T14:54:35.783Z,15.12
2022-10-02T14:57:37.389Z,14.30
2022-10-02T15:00:30.586Z,14.65
2022-10-02T15:03:36.703Z,14.21
2022-10-02T15:06:51.373Z,14.93
2022-10-02T15:09:50.204Z,14.88
2022-10-02T15:12:49.366Z,14.77
2022-10-02T15:15:45.635Z,14.32
2022-10-02T15:18:42.174Z,14.43
2022-10-02T15:21:39.029Z,14.41
2022-10-02T15:24:31.648Z,14.00
2022-10-02T15:27:24.731Z,14.50
2022-10-02T15:30:21.928Z,14.51
2022-10-02T15:33:22.373Z,14.64
2022-10-02T15:36:24.574Z,13.99
2022-10-02T15:39:40.072Z,14.20
2022-10-02T15:42:49.706Z,14.74
2022-10-02T15:46:00.723Z,14.19
2022-10-02T15:49:01.218Z,14.65
2022-10-02T15:52:03.737Z,13.85
2022-10-02T15:55:09.204Z,14.34
2022-10-02T15:58:18.015Z,14.32
2022-10-02T16:01:26.681Z,13.55
2022-10-02T16:04:25.551Z,13.67
2022-10-02T16:07:36.692Z,13.71
2022-10-02T16:10:32.086Z,13.28
2022-10-02T16:13:42.347Z,13.43
2022-10-02T16:17:07.344Z,13.38
2022-10-02T16:20:32.696Z,13.69
2022-10-02T16:23:34.843Z,13.94
2022-10-02T16:26:38.764Z,13.34
2022-10-02T16:29:40.752Z,12.70
2022-10-02T16:32:37.139Z,12.56
2022-10-02T16:36:04.195Z,12.28
2022-10-02T16:39:02.557Z,12.38
2022-10-02T16:42:03.302Z,12.26
2022-10-02T16:45:29.094Z,12.57
2022-10-02T16:48:23.625Z,12.60
2022-10-02T16:51:18.807Z,12.06
2022-10-02T16:54:18.920Z,12.35
2022-10-02T16:57:22.480Z,12.16
2022-10-02T17:00:16.927Z,12.27
2022-10-02T17:03:12.837Z,12.70
2022-10-02T17:06:08.039Z,12.39
2022-10-02T17:09:06.763Z,12.21
2022-10-02T17:12:03.798Z,12.22
2022-10-02T17:14:58.250Z,12.30
2022-10-02T17:17:57.865Z,12.28
2022-10-02T17:20:51.226Z,11.97
2022-10-02T17:23:49.392Z,11.87
2022-10-02T17:26:43.626Z,12.11
2022-10-02T17:29:39.307Z,12.21
2022-10-02T17:32:50.338Z,11.92
2022-10-02T17:35:44.855Z,11.90
2022-10-02T17:38:55.415Z,12.16
2022-10-02T17:41:52.221Z,12.05
2022-10-02T17:44:49.547Z,12.09
2022-10-02T17:47:59.113Z,11.93
2022-10-02T17:51:01.111Z,12.05
2022-10-02T17:54:22.353Z,12.09
2022-10-02T17:57:24.110Z,11.83
2022-10-02T18:00:21.346Z,12.12
2022-10-02T18:03:27.510Z,12.29
2022-10-02T18:06:26.651Z,12.50
2022-10-02T18:09:35.646Z,12.33
2022-10-02T18:12:42.144Z,12.60
2022-10-02T18:15:43.256Z,12.44
2022-10-02T18:18:39.037Z,12.62
2022-10-02T18:21:38.017Z,12.60
2022-10-02T18:24:36.570Z,12.80
2022-10-02T18:27:43.569Z,13.21
2022-10-02T18:30:43.616Z,12.51
2022-10-02T18:34:06.837Z,12.50
2022-10-02T18:37:12.130Z,12.60
2022-10-02T18:40:17.522Z,12.96
2022-10-02T18:43:22.617Z,12.85
2022-10-02T18:46:21.015Z,12.74
2022-10-02T18:49:35.866Z,12.60
2022-10-02T18:53:03.684Z,12.90
2022-10-02T18:56:03.530Z,12.85
2022-10-02T18:59:03.311Z,12.82
2022-10-02T19:02:05.324Z,13.02
2022-10-02T19:05:13.545Z,13.01
2022-10-02T19:08:19.350Z,12.67
2022-10-02T19:11:18.514Z,11.24
2022-10-02T19:14:14.889Z,10.09
2022-10-02T19:17:05.893Z,10.55
2022-10-02T19:19:54.413Z,10.82
2022-10-02T19:22:44.213Z,10.90
2022-10-02T19:25:32.727Z,10.81
2022-10-02T19:28:25.522Z,10.70
2022-10-02T19:31:21.880Z,10.81
2022-10-02T19:34:17.419Z,11.03
2022-10-02T19:37:08.037Z,10.91
2022-10-02T19:40:01.945Z,11.16
2022-10-02T19:42:54.790Z,10.69
2022-10-02T19:45:44.014Z,10.48
2022-10-02T19:48:33.790Z,10.58
2022-10-02T19:51:22.342Z,10.40
2022-10-02T19:54:17.219Z,10.20
2022-10-02T19:57:15.001Z,10.42
2022-10-02T20:00:05.226Z,10.44
2022-10-02T20:02:57.206Z,10.40
2022-10-02T20:06:03.164Z,10.39
2022-10-02T20:08:58.927Z,10.35
2022-10-02T20:12:10.455Z,10.32
2022-10-02T20:15:07.328Z,10.45
2022-10-02T20:17:56.870Z,10.41
2022-10-02T20:20:48.860Z,10.38
2022-10-02T20:23:43.734Z,10.59
2022-10-02T20:26:42.217Z,10.75
2022-10-02T20:29:46.937Z,10.71
2022-10-02T20:32:50.972Z,10.45
2022-10-02T20:35:48.642Z,10.53
2022-10-02T20:38:52.731Z,10.35
2022-10-02T20:41:59.024Z,10.46
2022-10-02T20:44:48.897Z,10.36
2022-10-02T20:48:25.896Z,10.43
2022-10-02T20:51:34.330Z,10.39
2022-10-02T20:54:46.826Z,10.63
2022-10-02T20:58:15.501Z,10.44
2022-10-02T21:01:21.920Z,10.57
2022-10-02T21:05:09.971Z,10.14
2022-10-02T21:08:28.223Z,10.23
2022-10-02T21:11:28.867Z,10.45
2022-10-02T21:15:11.982Z,10.51
2022-10-02T21:18:23.885Z,10.31
2022-10-02T21:22:07.951Z,10.33
2022-10-02T21:25:46.319Z,10.36
2022-10-02T21:29:29.733Z,10.06
2022-10-02T21:32:45.966Z,10.04
2022-10-02T21:35:49.060Z,10.20
2022-10-02T21:39:30.822Z,10.01
2022-10-02T21:43:17.811Z,10.14
2022-10-02T21:46:48.737Z,9.87
2022-10-02T21:50:17.525Z,9.85
2022-10-02T21:53:52.143Z,10.14
2022-10-02T21:57:28.334Z,9.91
2022-10-02T22:00:35.168Z,10.15
2022-10-02T22:04:02.243Z,10.22
2022-10-02T22:07:06.441Z,10.14
2022-10-02T22:10:01.033Z,10.15
2022-10-02T22:13:09.367Z,10.12
2022-10-02T22:16:15.574Z,10.12
2022-10-02T22:19:17.701Z,10.19
2022-10-02T22:22:29.576Z,10.01
2022-10-02T22:25:33.315Z,10.32
2022-10-02T22:28:32.946Z,10.23
2022-10-02T22:31:57.805Z,10.37
2022-10-02T22:34:56.934Z,10.17
2022-10-02T22:38:10.509Z,10.21
2022-10-02T22:41:08.097Z,10.60
2022-10-02T22:44:02.385Z,10.24
2022-10-02T22:47:03.559Z,10.14
2022-10-02T22:49:56.680Z,10.40
2022-10-02T22:52:50.373Z,10.35
2022-10-02T22:55:49.267Z,10.50
2022-10-02T22:58:48.515Z,10.37
2022-10-02T23:01:46.621Z,10.08
2022-10-02T23:04:57.100Z,10.24
2022-10-02T23:07:53.639Z,10.28
2022-10-02T23:10:47.843Z,10.68
2022-10-02T23:13:46.933Z,10.27
2022-10-02T23:16:49.572Z,10.40
2022-10-02T23:19:50.850Z,10.33
2022-10-02T23:22:53.047Z,10.36
2022-10-02T23:26:02.899Z,10.52
2022-10-02T23:28:59.400Z,10.24
2022-10-02T23:31:57.575Z,10.43
2022-10-02T23:34:56.965Z,10.17
2022-10-02T23:37:52.734Z,10.44
2022-10-02T23:41:19.858Z,10.41
2022-10-02T23:44:18.273Z,10.30
2022-10-02T23:47:27.795Z,10.53
2022-10-02T23:50:25.496Z,10.30
2022-10-02T23:53:41.967Z,10.58
2022-10-02T23:57:01.203Z,10.61
